sensor_id;sensor_type;location;lat;lon;timestamp;P1;durP1;ratioP1;P2;durP2;ratioP2
28174;SDS011;59417;44.788;10.334;2023-08-06T00:00:24;2.08;;;1.02;;
28174;SDS011;59417;44.788;10.334;2023-08-06T00:02:50;4.15;;;0.90;;
28174;SDS011;59417;44.788;10.334;2023-08-06T00:05:16;2.55;;;1.00;;
28174;SDS011;59417;44.788;10.334;2023-08-06T00:07:46;3.80;;;1.10;;
28174;SDS011;59417;44.788;10.334;2023-08-06T00:10:12;3.33;;;1.13;;
28174;SDS011;59417;44.788;10.334;2023-08-06T00:12:38;2.53;;;1.10;;
28174;SDS011;59417;44.788;10.334;2023-08-06T00:15:04;3.45;;;0.90;;
28174;SDS011;59417;44.788;10.334;2023-08-06T00:17:30;2.60;;;1.15;;
28174;SDS011;59417;44.788;10.334;2023-08-06T00:19:55;2.95;;;1.10;;
28174;SDS011;59417;44.788;10.334;2023-08-06T00:22:21;1.42;;;1.00;;
28174;SDS011;59417;44.788;10.334;2023-08-06T00:24:47;5.38;;;1.10;;
28174;SDS011;59417;44.788;10.334;2023-08-06T00:27:13;1.52;;;0.98;;
28174;SDS011;59417;44.788;10.334;2023-08-06T00:29:38;2.38;;;1.00;;
28174;SDS011;59417;44.788;10.334;2023-08-06T00:32:04;2.03;;;1.10;;
28174;SDS011;59417;44.788;10.334;2023-08-06T00:34:29;2.40;;;0.90;;
28174;SDS011;59417;44.788;10.334;2023-08-06T00:36:55;1.23;;;0.70;;
28174;SDS011;59417;44.788;10.334;2023-08-06T00:39:20;1.23;;;0.73;;
28174;SDS011;59417;44.788;10.334;2023-08-06T00:41:46;1.13;;;0.90;;
28174;SDS011;59417;44.788;10.334;2023-08-06T00:47:08;2.75;;;1.00;;
28174;SDS011;59417;44.788;10.334;2023-08-06T00:49:35;0.93;;;0.85;;
28174;SDS011;59417;44.788;10.334;2023-08-06T00:52:02;0.90;;;0.80;;
28174;SDS011;59417;44.788;10.334;2023-08-06T00:54:33;3.00;;;0.90;;
28174;SDS011;59417;44.788;10.334;2023-08-06T00:57:01;0.82;;;0.82;;
28174;SDS011;59417;44.788;10.334;2023-08-06T00:59:35;2.50;;;1.20;;
28174;SDS011;59417;44.788;10.334;2023-08-06T01:02:03;1.60;;;1.13;;
28174;SDS011;59417;44.788;10.334;2023-08-06T01:04:29;3.75;;;1.25;;
28174;SDS011;59417;44.788;10.334;2023-08-06T01:10:01;1.10;;;0.98;;
28174;SDS011;59417;44.788;10.334;2023-08-06T01:13:06;3.08;;;1.30;;
28174;SDS011;59417;44.788;10.334;2023-08-06T01:15:46;2.67;;;1.10;;
28174;SDS011;59417;44.788;10.334;2023-08-06T01:18:16;1.70;;;1.02;;
28174;SDS011;59417;44.788;10.334;2023-08-06T01:20:42;1.38;;;1.10;;
28174;SDS011;59417;44.788;10.334;2023-08-06T01:23:08;3.15;;;1.13;;
28174;SDS011;59417;44.788;10.334;2023-08-06T01:25:43;2.33;;;1.30;;
28174;SDS011;59417;44.788;10.334;2023-08-06T01:28:24;1.75;;;1.10;;
28174;SDS011;59417;44.788;10.334;2023-08-06T01:31:14;1.77;;;1.17;;
28174;SDS011;59417;44.788;10.334;2023-08-06T01:33:44;3.70;;;1.50;;
28174;SDS011;59417;44.788;10.334;2023-08-06T01:36:15;3.35;;;1.50;;
28174;SDS011;59417;44.788;10.334;2023-08-06T01:38:43;2.90;;;1.27;;
28174;SDS011;59417;44.788;10.334;2023-08-06T01:41:09;1.92;;;1.30;;
28174;SDS011;59417;44.788;10.334;2023-08-06T01:43:35;2.22;;;1.20;;
28174;SDS011;59417;44.788;10.334;2023-08-06T01:46:01;1.35;;;1.17;;
28174;SDS011;59417;44.788;10.334;2023-08-06T01:48:27;2.03;;;1.20;;
28174;SDS011;59417;44.788;10.334;2023-08-06T01:50:52;3.90;;;1.27;;
28174;SDS011;59417;44.788;10.334;2023-08-06T01:53:18;2.33;;;1.30;;
28174;SDS011;59417;44.788;10.334;2023-08-06T01:55:47;1.38;;;1.10;;
28174;SDS011;59417;44.788;10.334;2023-08-06T01:58:16;6.30;;;1.40;;
28174;SDS011;59417;44.788;10.334;2023-08-06T02:00:56;2.28;;;1.13;;
28174;SDS011;59417;44.788;10.334;2023-08-06T02:03:23;2.70;;;1.30;;
28174;SDS011;59417;44.788;10.334;2023-08-06T02:05:48;2.30;;;1.00;;
28174;SDS011;59417;44.788;10.334;2023-08-06T02:08:14;3.88;;;1.40;;
28174;SDS011;59417;44.788;10.334;2023-08-06T02:10:39;3.30;;;1.38;;
28174;SDS011;59417;44.788;10.334;2023-08-06T02:13:06;1.88;;;0.90;;
28174;SDS011;59417;44.788;10.334;2023-08-06T02:15:32;1.38;;;1.20;;
28174;SDS011;59417;44.788;10.334;2023-08-06T02:17:58;1.65;;;1.25;;
28174;SDS011;59417;44.788;10.334;2023-08-06T02:20:23;1.83;;;1.23;;
28174;SDS011;59417;44.788;10.334;2023-08-06T02:22:49;2.30;;;1.17;;
28174;SDS011;59417;44.788;10.334;2023-08-06T02:25:15;2.65;;;1.33;;
28174;SDS011;59417;44.788;10.334;2023-08-06T02:27:42;2.65;;;1.30;;
28174;SDS011;59417;44.788;10.334;2023-08-06T02:30:08;1.33;;;1.23;;
28174;SDS011;59417;44.788;10.334;2023-08-06T02:32:33;3.50;;;1.52;;
28174;SDS011;59417;44.788;10.334;2023-08-06T02:35:01;1.73;;;1.38;;
28174;SDS011;59417;44.788;10.334;2023-08-06T02:37:27;2.60;;;1.30;;
28174;SDS011;59417;44.788;10.334;2023-08-06T02:39:53;2.38;;;1.50;;
28174;SDS011;59417;44.788;10.334;2023-08-06T02:42:19;2.83;;;1.63;;
28174;SDS011;59417;44.788;10.334;2023-08-06T02:44:44;2.17;;;1.92;;
28174;SDS011;59417;44.788;10.334;2023-08-06T02:47:10;2.22;;;1.58;;
28174;SDS011;59417;44.788;10.334;2023-08-06T02:49:35;1.52;;;1.30;;
28174;SDS011;59417;44.788;10.334;2023-08-06T02:52:02;2.25;;;1.80;;
28174;SDS011;59417;44.788;10.334;2023-08-06T02:54:28;3.58;;;1.83;;
28174;SDS011;59417;44.788;10.334;2023-08-06T02:56:54;3.33;;;2.42;;
28174;SDS011;59417;44.788;10.334;2023-08-06T02:59:31;5.25;;;4.05;;
28174;SDS011;59417;44.788;10.334;2023-08-06T03:02:03;5.60;;;3.10;;
28174;SDS011;59417;44.788;10.334;2023-08-06T03:04:40;2.33;;;1.90;;
28174;SDS011;59417;44.788;10.334;2023-08-06T03:07:07;4.03;;;2.30;;
28174;SDS011;59417;44.788;10.334;2023-08-06T03:09:41;4.35;;;2.33;;
28174;SDS011;59417;44.788;10.334;2023-08-06T03:12:07;3.80;;;2.08;;
28174;SDS011;59417;44.788;10.334;2023-08-06T03:14:33;2.83;;;2.35;;
28174;SDS011;59417;44.788;10.334;2023-08-06T03:16:59;2.40;;;2.00;;
28174;SDS011;59417;44.788;10.334;2023-08-06T03:19:24;2.03;;;1.45;;
28174;SDS011;59417;44.788;10.334;2023-08-06T03:21:50;3.15;;;2.08;;
28174;SDS011;59417;44.788;10.334;2023-08-06T03:24:16;2.38;;;2.03;;
28174;SDS011;59417;44.788;10.334;2023-08-06T03:26:44;2.58;;;2.05;;
28174;SDS011;59417;44.788;10.334;2023-08-06T03:29:10;9.32;;;2.30;;
28174;SDS011;59417;44.788;10.334;2023-08-06T03:31:37;3.72;;;2.22;;
28174;SDS011;59417;44.788;10.334;2023-08-06T03:34:03;2.35;;;2.10;;
28174;SDS011;59417;44.788;10.334;2023-08-06T03:36:30;3.83;;;2.10;;
28174;SDS011;59417;44.788;10.334;2023-08-06T03:38:56;2.58;;;2.38;;
28174;SDS011;59417;44.788;10.334;2023-08-06T03:41:21;2.90;;;2.13;;
28174;SDS011;59417;44.788;10.334;2023-08-06T03:43:47;3.53;;;2.00;;
28174;SDS011;59417;44.788;10.334;2023-08-06T03:46:19;2.40;;;2.10;;
28174;SDS011;59417;44.788;10.334;2023-08-06T03:48:45;3.25;;;2.60;;
28174;SDS011;59417;44.788;10.334;2023-08-06T03:51:11;3.33;;;2.35;;
28174;SDS011;59417;44.788;10.334;2023-08-06T03:53:38;3.25;;;2.50;;
28174;SDS011;59417;44.788;10.334;2023-08-06T03:56:04;3.60;;;2.28;;
28174;SDS011;59417;44.788;10.334;2023-08-06T03:58:31;4.10;;;2.42;;
28174;SDS011;59417;44.788;10.334;2023-08-06T04:00:58;3.05;;;2.40;;
28174;SDS011;59417;44.788;10.334;2023-08-06T04:03:32;5.82;;;2.67;;
28174;SDS011;59417;44.788;10.334;2023-08-06T04:05:59;4.30;;;2.40;;
28174;SDS011;59417;44.788;10.334;2023-08-06T04:08:26;5.45;;;3.03;;
28174;SDS011;59417;44.788;10.334;2023-08-06T04:10:52;4.35;;;3.20;;
28174;SDS011;59417;44.788;10.334;2023-08-06T04:13:18;2.90;;;2.67;;
28174;SDS011;59417;44.788;10.334;2023-08-06T04:15:44;5.93;;;4.60;;
28174;SDS011;59417;44.788;10.334;2023-08-06T04:18:10;4.20;;;3.47;;
28174;SDS011;59417;44.788;10.334;2023-08-06T04:20:42;3.15;;;2.67;;
28174;SDS011;59417;44.788;10.334;2023-08-06T04:23:11;3.42;;;2.75;;
28174;SDS011;59417;44.788;10.334;2023-08-06T04:25:36;3.38;;;2.63;;
28174;SDS011;59417;44.788;10.334;2023-08-06T04:28:02;2.65;;;2.45;;
28174;SDS011;59417;44.788;10.334;2023-08-06T04:30:28;3.05;;;2.33;;
28174;SDS011;59417;44.788;10.334;2023-08-06T04:32:54;3.00;;;2.10;;
28174;SDS011;59417;44.788;10.334;2023-08-06T04:35:21;2.60;;;2.35;;
28174;SDS011;59417;44.788;10.334;2023-08-06T04:37:47;2.53;;;2.33;;
28174;SDS011;59417;44.788;10.334;2023-08-06T04:40:12;5.72;;;2.22;;
28174;SDS011;59417;44.788;10.334;2023-08-06T04:42:38;3.42;;;2.10;;
28174;SDS011;59417;44.788;10.334;2023-08-06T04:45:04;2.15;;;1.88;;
28174;SDS011;59417;44.788;10.334;2023-08-06T04:47:31;2.40;;;1.85;;
28174;SDS011;59417;44.788;10.334;2023-08-06T04:49:56;2.03;;;1.63;;
28174;SDS011;59417;44.788;10.334;2023-08-06T04:52:22;2.45;;;1.30;;
28174;SDS011;59417;44.788;10.334;2023-08-06T04:54:47;1.92;;;1.40;;
28174;SDS011;59417;44.788;10.334;2023-08-06T04:57:13;1.35;;;0.95;;
28174;SDS011;59417;44.788;10.334;2023-08-06T04:59:39;1.58;;;1.10;;
28174;SDS011;59417;44.788;10.334;2023-08-06T05:02:04;1.85;;;1.10;;
28174;SDS011;59417;44.788;10.334;2023-08-06T05:04:30;1.25;;;0.80;;
28174;SDS011;59417;44.788;10.334;2023-08-06T05:06:55;1.80;;;0.63;;
28174;SDS011;59417;44.788;10.334;2023-08-06T05:09:21;3.72;;;0.88;;
28174;SDS011;59417;44.788;10.334;2023-08-06T05:11:47;3.92;;;0.93;;
28174;SDS011;59417;44.788;10.334;2023-08-06T05:14:13;0.82;;;0.68;;
28174;SDS011;59417;44.788;10.334;2023-08-06T05:16:39;1.13;;;0.73;;
28174;SDS011;59417;44.788;10.334;2023-08-06T05:19:04;1.75;;;1.00;;
28174;SDS011;59417;44.788;10.334;2023-08-06T05:21:30;1.35;;;1.00;;
28174;SDS011;59417;44.788;10.334;2023-08-06T05:23:55;1.65;;;1.00;;
28174;SDS011;59417;44.788;10.334;2023-08-06T05:26:21;0.98;;;0.88;;
28174;SDS011;59417;44.788;10.334;2023-08-06T05:28:46;2.92;;;1.00;;
28174;SDS011;59417;44.788;10.334;2023-08-06T05:31:12;1.83;;;0.85;;
28174;SDS011;59417;44.788;10.334;2023-08-06T05:33:38;2.05;;;1.00;;
28174;SDS011;59417;44.788;10.334;2023-08-06T05:36:04;1.55;;;0.77;;
28174;SDS011;59417;44.788;10.334;2023-08-06T05:38:29;1.33;;;1.00;;
28174;SDS011;59417;44.788;10.334;2023-08-06T05:40:55;2.90;;;1.05;;
28174;SDS011;59417;44.788;10.334;2023-08-06T05:43:21;1.30;;;0.90;;
28174;SDS011;59417;44.788;10.334;2023-08-06T05:45:49;1.75;;;1.15;;
28174;SDS011;59417;44.788;10.334;2023-08-06T05:48:15;2.00;;;0.95;;
28174;SDS011;59417;44.788;10.334;2023-08-06T05:50:41;1.80;;;0.98;;
28174;SDS011;59417;44.788;10.334;2023-08-06T05:53:07;1.83;;;0.90;;
28174;SDS011;59417;44.788;10.334;2023-08-06T05:55:33;2.63;;;0.98;;
28174;SDS011;59417;44.788;10.334;2023-08-06T05:57:59;7.15;;;0.90;;
28174;SDS011;59417;44.788;10.334;2023-08-06T06:00:25;1.50;;;0.90;;
28174;SDS011;59417;44.788;10.334;2023-08-06T06:02:50;3.15;;;1.40;;
28174;SDS011;59417;44.788;10.334;2023-08-06T06:05:16;2.63;;;1.08;;
28174;SDS011;59417;44.788;10.334;2023-08-06T06:07:42;3.53;;;1.33;;
28174;SDS011;59417;44.788;10.334;2023-08-06T06:10:07;4.10;;;1.67;;
28174;SDS011;59417;44.788;10.334;2023-08-06T06:12:33;5.05;;;1.67;;
28174;SDS011;59417;44.788;10.334;2023-08-06T06:14:59;4.35;;;1.95;;
28174;SDS011;59417;44.788;10.334;2023-08-06T06:17:26;4.68;;;1.90;;
28174;SDS011;59417;44.788;10.334;2023-08-06T06:19:55;4.25;;;2.08;;
28174;SDS011;59417;44.788;10.334;2023-08-06T06:22:20;3.08;;;1.52;;
28174;SDS011;59417;44.788;10.334;2023-08-06T06:24:46;10.45;;;2.13;;
28174;SDS011;59417;44.788;10.334;2023-08-06T06:27:11;7.50;;;1.80;;
28174;SDS011;59417;44.788;10.334;2023-08-06T06:29:38;5.65;;;2.08;;
28174;SDS011;59417;44.788;10.334;2023-08-06T06:32:04;2.40;;;1.50;;
28174;SDS011;59417;44.788;10.334;2023-08-06T06:34:30;4.85;;;1.38;;
28174;SDS011;59417;44.788;10.334;2023-08-06T06:36:56;3.38;;;1.17;;
28174;SDS011;59417;44.788;10.334;2023-08-06T06:39:21;2.65;;;1.33;;
28174;SDS011;59417;44.788;10.334;2023-08-06T06:41:47;3.47;;;1.38;;
28174;SDS011;59417;44.788;10.334;2023-08-06T06:44:22;2.97;;;1.42;;
28174;SDS011;59417;44.788;10.334;2023-08-06T06:46:48;3.47;;;1.50;;
28174;SDS011;59417;44.788;10.334;2023-08-06T06:49:13;2.15;;;1.33;;
28174;SDS011;59417;44.788;10.334;2023-08-06T06:51:39;2.88;;;1.20;;
28174;SDS011;59417;44.788;10.334;2023-08-06T06:54:05;4.03;;;1.33;;
28174;SDS011;59417;44.788;10.334;2023-08-06T06:56:30;2.20;;;1.45;;
28174;SDS011;59417;44.788;10.334;2023-08-06T06:58:56;6.38;;;1.45;;
28174;SDS011;59417;44.788;10.334;2023-08-06T07:01:21;3.08;;;1.40;;
28174;SDS011;59417;44.788;10.334;2023-08-06T07:03:47;3.40;;;1.40;;
28174;SDS011;59417;44.788;10.334;2023-08-06T07:06:13;4.22;;;1.33;;
28174;SDS011;59417;44.788;10.334;2023-08-06T07:08:40;2.58;;;1.40;;
28174;SDS011;59417;44.788;10.334;2023-08-06T07:11:06;2.53;;;1.63;;
28174;SDS011;59417;44.788;10.334;2023-08-06T07:13:33;2.78;;;1.55;;
28174;SDS011;59417;44.788;10.334;2023-08-06T07:15:59;2.67;;;1.67;;
28174;SDS011;59417;44.788;10.334;2023-08-06T07:18:25;2.50;;;1.52;;
28174;SDS011;59417;44.788;10.334;2023-08-06T07:20:51;5.07;;;1.83;;
28174;SDS011;59417;44.788;10.334;2023-08-06T07:23:20;4.65;;;1.58;;
28174;SDS011;59417;44.788;10.334;2023-08-06T07:25:46;1.92;;;1.17;;
28174;SDS011;59417;44.788;10.334;2023-08-06T07:28:12;1.83;;;1.30;;
28174;SDS011;59417;44.788;10.334;2023-08-06T07:30:39;1.77;;;1.35;;
28174;SDS011;59417;44.788;10.334;2023-08-06T07:33:05;5.47;;;1.50;;
28174;SDS011;59417;44.788;10.334;2023-08-06T07:35:31;3.53;;;1.45;;
28174;SDS011;59417;44.788;10.334;2023-08-06T07:37:58;2.33;;;1.45;;
28174;SDS011;59417;44.788;10.334;2023-08-06T07:40:23;3.40;;;1.50;;
28174;SDS011;59417;44.788;10.334;2023-08-06T07:42:49;2.90;;;1.55;;
28174;SDS011;59417;44.788;10.334;2023-08-06T07:45:15;2.20;;;1.23;;
28174;SDS011;59417;44.788;10.334;2023-08-06T07:47:41;2.05;;;1.20;;
28174;SDS011;59417;44.788;10.334;2023-08-06T07:50:08;4.05;;;1.48;;
28174;SDS011;59417;44.788;10.334;2023-08-06T07:52:34;2.03;;;1.20;;
28174;SDS011;59417;44.788;10.334;2023-08-06T07:55:00;2.63;;;1.10;;
28174;SDS011;59417;44.788;10.334;2023-08-06T07:57:27;3.33;;;0.82;;
28174;SDS011;59417;44.788;10.334;2023-08-06T07:59:53;2.33;;;1.20;;
28174;SDS011;59417;44.788;10.334;2023-08-06T08:02:19;4.47;;;1.00;;
28174;SDS011;59417;44.788;10.334;2023-08-06T08:04:45;1.20;;;0.70;;
28174;SDS011;59417;44.788;10.334;2023-08-06T08:07:12;3.10;;;0.98;;
28174;SDS011;59417;44.788;10.334;2023-08-06T08:09:38;1.23;;;0.80;;
28174;SDS011;59417;44.788;10.334;2023-08-06T08:12:04;0.80;;;0.77;;
28174;SDS011;59417;44.788;10.334;2023-08-06T08:14:30;1.13;;;1.00;;
28174;SDS011;59417;44.788;10.334;2023-08-06T08:17:03;2.30;;;0.70;;
28174;SDS011;59417;44.788;10.334;2023-08-06T08:19:31;0.80;;;0.80;;
28174;SDS011;59417;44.788;10.334;2023-08-06T08:21:57;1.23;;;0.80;;
28174;SDS011;59417;44.788;10.334;2023-08-06T08:24:23;3.25;;;1.00;;
28174;SDS011;59417;44.788;10.334;2023-08-06T08:26:50;2.00;;;1.45;;
28174;SDS011;59417;44.788;10.334;2023-08-06T08:29:16;5.15;;;3.03;;
28174;SDS011;59417;44.788;10.334;2023-08-06T08:31:41;3.72;;;1.70;;
28174;SDS011;59417;44.788;10.334;2023-08-06T08:34:08;3.88;;;1.60;;
28174;SDS011;59417;44.788;10.334;2023-08-06T08:36:34;2.38;;;1.40;;
28174;SDS011;59417;44.788;10.334;2023-08-06T08:39:00;2.55;;;1.42;;
28174;SDS011;59417;44.788;10.334;2023-08-06T08:41:27;3.72;;;1.73;;
28174;SDS011;59417;44.788;10.334;2023-08-06T08:43:54;2.92;;;1.20;;
28174;SDS011;59417;44.788;10.334;2023-08-06T08:46:23;2.08;;;1.40;;
28174;SDS011;59417;44.788;10.334;2023-08-06T08:48:51;2.80;;;1.23;;
28174;SDS011;59417;44.788;10.334;2023-08-06T08:51:17;3.80;;;1.20;;
28174;SDS011;59417;44.788;10.334;2023-08-06T08:53:42;4.03;;;1.23;;
28174;SDS011;59417;44.788;10.334;2023-08-06T08:56:09;4.07;;;1.55;;
28174;SDS011;59417;44.788;10.334;2023-08-06T08:58:37;2.92;;;1.13;;
28174;SDS011;59417;44.788;10.334;2023-08-06T09:01:03;2.00;;;0.88;;
28174;SDS011;59417;44.788;10.334;2023-08-06T09:03:30;1.05;;;0.80;;
28174;SDS011;59417;44.788;10.334;2023-08-06T09:05:56;1.75;;;1.15;;
28174;SDS011;59417;44.788;10.334;2023-08-06T09:08:24;1.90;;;1.00;;
28174;SDS011;59417;44.788;10.334;2023-08-06T09:10:54;1.85;;;0.98;;
28174;SDS011;59417;44.788;10.334;2023-08-06T09:13:22;1.10;;;1.00;;
28174;SDS011;59417;44.788;10.334;2023-08-06T09:15:48;1.02;;;0.93;;
28174;SDS011;59417;44.788;10.334;2023-08-06T09:18:24;3.80;;;0.70;;
28174;SDS011;59417;44.788;10.334;2023-08-06T09:20:52;1.15;;;1.00;;
28174;SDS011;59417;44.788;10.334;2023-08-06T09:23:17;2.25;;;0.90;;
28174;SDS011;59417;44.788;10.334;2023-08-06T09:25:43;4.40;;;1.13;;
28174;SDS011;59417;44.788;10.334;2023-08-06T09:28:08;1.92;;;1.40;;
28174;SDS011;59417;44.788;10.334;2023-08-06T09:30:35;1.38;;;0.93;;
28174;SDS011;59417;44.788;10.334;2023-08-06T09:33:20;2.15;;;1.08;;
28174;SDS011;59417;44.788;10.334;2023-08-06T09:35:48;2.25;;;0.95;;
28174;SDS011;59417;44.788;10.334;2023-08-06T09:38:13;2.40;;;1.08;;
28174;SDS011;59417;44.788;10.334;2023-08-06T09:40:39;1.17;;;1.00;;
28174;SDS011;59417;44.788;10.334;2023-08-06T09:43:05;1.52;;;1.10;;
28174;SDS011;59417;44.788;10.334;2023-08-06T09:45:35;1.10;;;1.00;;
28174;SDS011;59417;44.788;10.334;2023-08-06T09:48:03;3.65;;;1.15;;
28174;SDS011;59417;44.788;10.334;2023-08-06T09:50:30;1.90;;;1.00;;
28174;SDS011;59417;44.788;10.334;2023-08-06T09:53:02;1.65;;;1.27;;
28174;SDS011;59417;44.788;10.334;2023-08-06T09:55:32;1.58;;;1.15;;
28174;SDS011;59417;44.788;10.334;2023-08-06T09:57:59;1.17;;;1.08;;
28174;SDS011;59417;44.788;10.334;2023-08-06T10:00:26;2.47;;;1.08;;
28174;SDS011;59417;44.788;10.334;2023-08-06T10:02:52;1.90;;;1.08;;
28174;SDS011;59417;44.788;10.334;2023-08-06T10:05:21;1.42;;;1.10;;
28174;SDS011;59417;44.788;10.334;2023-08-06T10:07:48;2.33;;;0.90;;
28174;SDS011;59417;44.788;10.334;2023-08-06T10:10:16;2.55;;;1.33;;
28174;SDS011;59417;44.788;10.334;2023-08-06T10:12:43;1.38;;;0.80;;
28174;SDS011;59417;44.788;10.334;2023-08-06T10:15:14;1.30;;;1.00;;
28174;SDS011;59417;44.788;10.334;2023-08-06T10:17:43;1.37;;;1.13;;
28174;SDS011;59417;44.788;10.334;2023-08-06T10:20:11;4.20;;;1.00;;
28174;SDS011;59417;44.788;10.334;2023-08-06T10:22:37;3.13;;;1.23;;
28174;SDS011;59417;44.788;10.334;2023-08-06T10:25:08;1.13;;;1.02;;
28174;SDS011;59417;44.788;10.334;2023-08-06T10:30:21;3.05;;;1.45;;
28174;SDS011;59417;44.788;10.334;2023-08-06T10:32:50;1.98;;;0.88;;
28174;SDS011;59417;44.788;10.334;2023-08-06T10:35:28;1.00;;;0.80;;
28174;SDS011;59417;44.788;10.334;2023-08-06T10:38:03;1.10;;;1.00;;
28174;SDS011;59417;44.788;10.334;2023-08-06T10:40:40;1.40;;;1.30;;
28174;SDS011;59417;44.788;10.334;2023-08-06T10:43:08;2.17;;;1.17;;
28174;SDS011;59417;44.788;10.334;2023-08-06T10:45:54;1.10;;;1.05;;
28174;SDS011;59417;44.788;10.334;2023-08-06T10:48:36;1.92;;;1.13;;
28174;SDS011;59417;44.788;10.334;2023-08-06T10:51:12;5.00;;;1.23;;
28174;SDS011;59417;44.788;10.334;2023-08-06T10:53:44;1.45;;;1.02;;
28174;SDS011;59417;44.788;10.334;2023-08-06T10:56:18;2.47;;;1.25;;
28174;SDS011;59417;44.788;10.334;2023-08-06T10:58:48;1.35;;;0.90;;
28174;SDS011;59417;44.788;10.334;2023-08-06T11:01:14;1.33;;;0.95;;
28174;SDS011;59417;44.788;10.334;2023-08-06T11:03:44;2.13;;;1.20;;
28174;SDS011;59417;44.788;10.334;2023-08-06T11:06:11;2.03;;;1.10;;
28174;SDS011;59417;44.788;10.334;2023-08-06T11:08:47;1.00;;;0.70;;
28174;SDS011;59417;44.788;10.334;2023-08-06T11:11:17;1.75;;;1.00;;
28174;SDS011;59417;44.788;10.334;2023-08-06T11:13:43;1.35;;;1.08;;
28174;SDS011;59417;44.788;10.334;2023-08-06T11:16:13;2.70;;;1.10;;
28174;SDS011;59417;44.788;10.334;2023-08-06T11:18:40;1.17;;;1.00;;
28174;SDS011;59417;44.788;10.334;2023-08-06T11:21:07;2.13;;;0.93;;
28174;SDS011;59417;44.788;10.334;2023-08-06T11:23:33;1.90;;;1.17;;
28174;SDS011;59417;44.788;10.334;2023-08-06T11:25:59;1.77;;;1.27;;
28174;SDS011;59417;44.788;10.334;2023-08-06T11:28:26;2.15;;;1.20;;
28174;SDS011;59417;44.788;10.334;2023-08-06T11:30:52;2.55;;;1.10;;
28174;SDS011;59417;44.788;10.334;2023-08-06T11:33:21;3.00;;;1.40;;
28174;SDS011;59417;44.788;10.334;2023-08-06T11:35:55;1.17;;;1.00;;
28174;SDS011;59417;44.788;10.334;2023-08-06T11:38:22;1.50;;;1.10;;
28174;SDS011;59417;44.788;10.334;2023-08-06T11:40:51;3.47;;;1.08;;
28174;SDS011;59417;44.788;10.334;2023-08-06T11:43:18;1.73;;;1.48;;
28174;SDS011;59417;44.788;10.334;2023-08-06T11:45:46;4.30;;;1.10;;
28174;SDS011;59417;44.788;10.334;2023-08-06T11:48:12;3.63;;;0.90;;
28174;SDS011;59417;44.788;10.334;2023-08-06T11:50:37;1.35;;;1.15;;
28174;SDS011;59417;44.788;10.334;2023-08-06T11:53:04;3.67;;;1.08;;
28174;SDS011;59417;44.788;10.334;2023-08-06T11:55:30;3.58;;;1.42;;
28174;SDS011;59417;44.788;10.334;2023-08-06T11:57:56;2.38;;;0.88;;
28174;SDS011;59417;44.788;10.334;2023-08-06T12:00:23;1.23;;;0.90;;
28174;SDS011;59417;44.788;10.334;2023-08-06T12:02:50;1.30;;;1.05;;
28174;SDS011;59417;44.788;10.334;2023-08-06T12:05:18;1.55;;;1.10;;
28174;SDS011;59417;44.788;10.334;2023-08-06T12:07:57;3.83;;;1.20;;
28174;SDS011;59417;44.788;10.334;2023-08-06T12:10:24;1.52;;;1.02;;
28174;SDS011;59417;44.788;10.334;2023-08-06T12:12:51;2.33;;;1.20;;
28174;SDS011;59417;44.788;10.334;2023-08-06T12:15:16;1.70;;;1.20;;
28174;SDS011;59417;44.788;10.334;2023-08-06T12:17:42;2.78;;;1.10;;
28174;SDS011;59417;44.788;10.334;2023-08-06T12:20:08;0.93;;;0.90;;
28174;SDS011;59417;44.788;10.334;2023-08-06T12:22:35;1.17;;;1.05;;
28174;SDS011;59417;44.788;10.334;2023-08-06T12:25:03;1.48;;;1.05;;
28174;SDS011;59417;44.788;10.334;2023-08-06T12:27:33;3.75;;;1.10;;
28174;SDS011;59417;44.788;10.334;2023-08-06T12:29:59;2.75;;;1.02;;
28174;SDS011;59417;44.788;10.334;2023-08-06T12:32:25;5.28;;;1.17;;
28174;SDS011;59417;44.788;10.334;2023-08-06T12:34:51;2.42;;;1.25;;
28174;SDS011;59417;44.788;10.334;2023-08-06T12:37:16;1.23;;;1.00;;
28174;SDS011;59417;44.788;10.334;2023-08-06T12:39:42;1.23;;;1.00;;
28174;SDS011;59417;44.788;10.334;2023-08-06T12:42:07;1.33;;;0.80;;
28174;SDS011;59417;44.788;10.334;2023-08-06T12:44:33;1.10;;;1.00;;
28174;SDS011;59417;44.788;10.334;2023-08-06T12:46:59;1.10;;;0.85;;
28174;SDS011;59417;44.788;10.334;2023-08-06T12:49:25;3.10;;;1.08;;
28174;SDS011;59417;44.788;10.334;2023-08-06T12:51:51;1.35;;;1.10;;
28174;SDS011;59417;44.788;10.334;2023-08-06T12:54:18;1.38;;;0.85;;
28174;SDS011;59417;44.788;10.334;2023-08-06T12:56:45;3.70;;;1.27;;
28174;SDS011;59417;44.788;10.334;2023-08-06T12:59:13;1.60;;;1.20;;
28174;SDS011;59417;44.788;10.334;2023-08-06T13:01:40;5.38;;;1.30;;
28174;SDS011;59417;44.788;10.334;2023-08-06T13:04:05;1.50;;;1.13;;
28174;SDS011;59417;44.788;10.334;2023-08-06T13:06:31;3.08;;;1.10;;
28174;SDS011;59417;44.788;10.334;2023-08-06T13:09:02;2.88;;;1.10;;
28174;SDS011;59417;44.788;10.334;2023-08-06T13:11:29;1.92;;;1.05;;
28174;SDS011;59417;44.788;10.334;2023-08-06T13:13:56;1.88;;;1.30;;
28174;SDS011;59417;44.788;10.334;2023-08-06T13:16:33;1.10;;;1.00;;
28174;SDS011;59417;44.788;10.334;2023-08-06T13:18:59;3.35;;;0.90;;
28174;SDS011;59417;44.788;10.334;2023-08-06T13:21:31;1.35;;;1.00;;
28174;SDS011;59417;44.788;10.334;2023-08-06T13:24:06;2.33;;;1.00;;
28174;SDS011;59417;44.788;10.334;2023-08-06T13:26:35;3.95;;;1.27;;
28174;SDS011;59417;44.788;10.334;2023-08-06T13:29:01;1.75;;;0.95;;
28174;SDS011;59417;44.788;10.334;2023-08-06T13:31:27;3.53;;;1.08;;
28174;SDS011;59417;44.788;10.334;2023-08-06T13:33:54;1.38;;;1.10;;
28174;SDS011;59417;44.788;10.334;2023-08-06T13:36:22;0.98;;;0.80;;
28174;SDS011;59417;44.788;10.334;2023-08-06T13:38:49;4.22;;;1.00;;
28174;SDS011;59417;44.788;10.334;2023-08-06T13:41:14;2.67;;;1.33;;
28174;SDS011;59417;44.788;10.334;2023-08-06T13:43:40;5.68;;;1.40;;
28174;SDS011;59417;44.788;10.334;2023-08-06T13:46:06;5.68;;;1.10;;
28174;SDS011;59417;44.788;10.334;2023-08-06T13:48:32;1.77;;;1.08;;
28174;SDS011;59417;44.788;10.334;2023-08-06T13:50:57;3.10;;;1.05;;
28174;SDS011;59417;44.788;10.334;2023-08-06T13:53:23;2.15;;;1.10;;
28174;SDS011;59417;44.788;10.334;2023-08-06T13:55:55;2.03;;;0.98;;
28174;SDS011;59417;44.788;10.334;2023-08-06T13:58:22;2.85;;;0.80;;
28174;SDS011;59417;44.788;10.334;2023-08-06T14:00:47;1.10;;;1.00;;
28174;SDS011;59417;44.788;10.334;2023-08-06T14:03:13;1.40;;;1.20;;
28174;SDS011;59417;44.788;10.334;2023-08-06T14:05:39;2.17;;;1.08;;
28174;SDS011;59417;44.788;10.334;2023-08-06T14:08:04;1.33;;;1.20;;
28174;SDS011;59417;44.788;10.334;2023-08-06T14:10:30;1.98;;;0.98;;
28174;SDS011;59417;44.788;10.334;2023-08-06T14:12:56;1.02;;;0.90;;
28174;SDS011;59417;44.788;10.334;2023-08-06T14:15:21;1.33;;;1.00;;
28174;SDS011;59417;44.788;10.334;2023-08-06T14:17:47;1.25;;;1.15;;
28174;SDS011;59417;44.788;10.334;2023-08-06T14:20:13;3.42;;;1.10;;
28174;SDS011;59417;44.788;10.334;2023-08-06T14:22:38;1.02;;;0.90;;
28174;SDS011;59417;44.788;10.334;2023-08-06T14:25:04;2.33;;;1.10;;
28174;SDS011;59417;44.788;10.334;2023-08-06T14:27:30;1.60;;;1.10;;
28174;SDS011;59417;44.788;10.334;2023-08-06T14:29:56;3.25;;;1.48;;
28174;SDS011;59417;44.788;10.334;2023-08-06T14:32:21;1.77;;;1.00;;
28174;SDS011;59417;44.788;10.334;2023-08-06T14:34:47;0.93;;;0.82;;
28174;SDS011;59417;44.788;10.334;2023-08-06T14:37:12;1.80;;;1.30;;
28174;SDS011;59417;44.788;10.334;2023-08-06T14:39:38;4.70;;;1.02;;
28174;SDS011;59417;44.788;10.334;2023-08-06T14:42:04;1.70;;;1.20;;